Terminal Aerodrome Forecast
Issued by NWS

Home | Current Version | Previous Version | Text Only | Print | Product List | Glossary On
Versions: 1 2 3 4 5 6 7 8 9 10 11 12 13 14 15 16 17 18 19 20
629
FTUS46 KSEW 282320
TAFCLM
TAF
KCLM 282320Z 2900/2924 VRB03KT P6SM VCSH SCT025 OVC070
     FM290600 28006KT P6SM OVC025
     FM291800 32012KT P6SM SCT030 BKN050
     FM292100 30012G20KT P6SM SCT050=

USA.gov is the U.S. government's official web portal to all federal, state and local government web resources and services.